createdAt,value
2023-05-19T00:01:37.783Z,101110.72
2023-05-19T00:04:07.959Z,101121.94
2023-05-19T00:06:37.159Z,101113.91
2023-05-19T00:09:09.524Z,101112.00
2023-05-19T00:11:39.769Z,101112.72
2023-05-19T00:14:10.591Z,101114.28
2023-05-19T00:16:39.688Z,101111.53
2023-05-19T00:19:10.360Z,101114.88
2023-05-19T00:21:40.352Z,101110.34
2023-05-19T00:24:10.419Z,101114.59
2023-05-19T00:26:39.070Z,101122.25
2023-05-19T00:29:08.555Z,101120.34
2023-05-19T00:31:37.110Z,101116.66
2023-05-19T00:34:05.696Z,101117.38
2023-05-19T00:36:34.327Z,101115.34
2023-05-19T00:39:02.976Z,101115.03
2023-05-19T00:41:33.113Z,101113.94
2023-05-19T00:44:01.737Z,101117.25
2023-05-19T00:46:30.909Z,101112.59
2023-05-19T00:48:59.763Z,101115.03
2023-05-19T00:51:29.804Z,101112.97
2023-05-19T00:53:59.254Z,101110.13
2023-05-19T00:56:28.320Z,101115.16
2023-05-19T00:58:59.643Z,101110.56
2023-05-19T01:01:28.837Z,101109.53
2023-05-19T01:04:01.430Z,101104.94
2023-05-19T01:06:30.273Z,101107.28
2023-05-19T01:08:58.870Z,101104.47
2023-05-19T01:11:27.369Z,101102.50
2023-05-19T01:13:56.603Z,101105.66
2023-05-19T01:16:32.573Z,101099.38
2023-05-19T01:19:10.899Z,101100.03
2023-05-19T01:22:08.082Z,101097.97
2023-05-19T01:25:10.445Z,101098.47
2023-05-19T01:28:24.069Z,101099.03
2023-05-19T01:30:55.939Z,101101.31
2023-05-19T01:33:26.073Z,101096.69
2023-05-19T01:35:56.540Z,101098.22
2023-05-19T01:38:28.104Z,101095.38
2023-05-19T01:40:58.679Z,101092.56
2023-05-19T01:43:28.767Z,101091.53
2023-05-19T01:45:59.667Z,101092.16
2023-05-19T01:48:28.597Z,101097.16
2023-05-19T01:50:59.831Z,101099.56
2023-05-19T01:53:29.707Z,101107.19
2023-05-19T01:55:58.833Z,101107.84
2023-05-19T01:58:38.994Z,101111.97
2023-05-19T02:01:17.962Z,101112.59
2023-05-19T02:04:04.392Z,101110.59
2023-05-19T02:06:42.900Z,101111.19
2023-05-19T02:09:19.877Z,101110.13
2023-05-19T02:11:55.809Z,101112.59
2023-05-19T02:14:30.920Z,101110.75
2023-05-19T02:17:03.281Z,101121.19
2023-05-19T02:19:34.170Z,101111.56
2023-05-19T02:22:02.879Z,101115.88
2023-05-19T02:24:31.658Z,101116.63
2023-05-19T02:27:03.847Z,101110.59
2023-05-19T02:29:32.435Z,101106.25
2023-05-19T02:32:03.477Z,101110.59
2023-05-19T02:34:32.167Z,101099.31
2023-05-19T02:37:03.382Z,101103.75
2023-05-19T02:39:35.353Z,101101.94
2023-05-19T02:42:04.166Z,101097.59
2023-05-19T02:44:32.734Z,101103.75
2023-05-19T02:47:01.738Z,101100.19
2023-05-19T02:49:35.814Z,101096.69
2023-05-19T02:52:04.682Z,101094.94
2023-05-19T02:54:34.320Z,101097.53
2023-05-19T02:57:03.136Z,101090.44
2023-05-19T02:59:32.259Z,101093.13
2023-05-19T03:02:02.740Z,101077.31
2023-05-19T03:04:42.084Z,101077.31
2023-05-19T03:07:13.439Z,101079.91
2023-05-19T03:09:42.402Z,101082.44
2023-05-19T03:12:14.053Z,101084.16
2023-05-19T03:14:42.625Z,101079.78
2023-05-19T03:17:11.306Z,101080.53
2023-05-19T03:19:41.477Z,101088.34
2023-05-19T03:22:10.105Z,101089.91
2023-05-19T03:24:39.552Z,101086.34
2023-05-19T03:27:09.117Z,101089.75
2023-05-19T03:29:38.751Z,101080.94
2023-05-19T03:32:07.767Z,101085.19
2023-05-19T03:34:37.952Z,101085.94
2023-05-19T03:37:07.925Z,101087.63
2023-05-19T03:39:38.797Z,101078.66
2023-05-19T03:42:07.797Z,101087.25
2023-05-19T03:44:37.545Z,101083.66
2023-05-19T03:47:06.821Z,101082.59
2023-05-19T03:49:54.120Z,101079.91
2023-05-19T03:52:45.586Z,101083.31
2023-05-19T03:55:25.664Z,101085.94
2023-05-19T03:57:54.233Z,101084.16
2023-05-19T04:00:23.118Z,101082.34
2023-05-19T04:02:52.709Z,101091.84
2023-05-19T04:05:21.284Z,101086.63
2023-05-19T04:07:51.325Z,101091.84
2023-05-19T04:10:20.533Z,101091.03
2023-05-19T04:12:50.429Z,101090.19
2023-05-19T04:15:19.192Z,101088.50
2023-05-19T04:17:48.011Z,101088.50
2023-05-19T04:20:16.530Z,101086.78
2023-05-19T04:22:45.170Z,101087.56
2023-05-19T04:25:15.217Z,101092.78
2023-05-19T04:27:43.901Z,101094.47
2023-05-19T04:30:18.528Z,101082.22
2023-05-19T04:32:47.709Z,101086.63
2023-05-19T04:35:17.662Z,101089.25
2023-05-19T04:37:46.941Z,101093.53
2023-05-19T04:40:18.246Z,101091.84
2023-05-19T04:42:46.881Z,101084.91
2023-05-19T04:45:15.656Z,101093.72
2023-05-19T04:47:49.110Z,101087.56
2023-05-19T04:50:17.623Z,101099.81
2023-05-19T04:52:46.552Z,101096.38
2023-05-19T04:55:17.202Z,101100.84
2023-05-19T04:57:48.102Z,101102.72
2023-05-19T05:00:17.390Z,101099.38
2023-05-19T05:03:00.001Z,101097.81
2023-05-19T05:05:31.447Z,101097.13
2023-05-19T05:08:00.229Z,101096.47
2023-05-19T05:10:32.594Z,101088.78
2023-05-19T05:13:03.545Z,101094.25
2023-05-19T05:15:32.739Z,101091.78
2023-05-19T05:18:04.123Z,101094.59
2023-05-19T05:20:33.889Z,101095.69
2023-05-19T05:23:07.140Z,101102.91
2023-05-19T05:25:37.138Z,101102.25
2023-05-19T05:28:07.927Z,101098.03
2023-05-19T05:30:44.187Z,101099.16
2023-05-19T05:33:13.503Z,101093.31
2023-05-19T05:35:44.393Z,101095.25
2023-05-19T05:38:24.083Z,101097.34
2023-05-19T05:40:53.098Z,101100.09
2023-05-19T05:43:23.950Z,101093.38
2023-05-19T05:46:00.051Z,101093.66
2023-05-19T05:48:29.655Z,101092.16
2023-05-19T05:51:00.623Z,101087.28
2023-05-19T05:53:37.183Z,101091.03
2023-05-19T05:56:08.412Z,101091.34
2023-05-19T05:58:46.858Z,101096.03
2023-05-19T06:01:18.809Z,101093.63
2023-05-19T06:03:47.846Z,101093.03
2023-05-19T06:06:22.178Z,101087.22
2023-05-19T06:08:51.835Z,101089.31
2023-05-19T06:11:21.564Z,101078.19
2023-05-19T06:13:52.395Z,101083.69
2023-05-19T06:16:41.418Z,101079.63
2023-05-19T06:19:11.216Z,101074.63
2023-05-19T06:21:40.435Z,101080.16
2023-05-19T06:24:09.441Z,101075.16
2023-05-19T06:26:38.438Z,101078.06
2023-05-19T06:29:09.013Z,101077.47
2023-05-19T06:31:38.544Z,101073.38
2023-05-19T06:34:12.616Z,101080.66
2023-05-19T06:36:41.974Z,101078.34
2023-05-19T06:39:11.976Z,101072.53
2023-05-19T06:41:44.340Z,101077.19
2023-05-19T06:44:26.455Z,101080.88
2023-05-19T06:46:54.938Z,101076.78
2023-05-19T06:49:24.046Z,101080.59
2023-05-19T06:51:52.625Z,101079.94
2023-05-19T06:54:21.960Z,101081.97
2023-05-19T06:56:50.884Z,101082.28
2023-05-19T06:59:21.913Z,101080.78
2023-05-19T07:01:52.303Z,101084.56
2023-05-19T07:04:20.997Z,101088.28
2023-05-19T07:06:50.254Z,101085.94
2023-05-19T07:09:19.217Z,101085.38
2023-05-19T07:11:48.559Z,101089.16
2023-05-19T07:14:18.059Z,101083.31
2023-05-19T07:16:46.741Z,101081.81
2023-05-19T07:19:16.819Z,101085.56
2023-05-19T07:21:48.115Z,101084.91
2023-05-19T07:24:17.318Z,101080.78
2023-05-19T07:26:45.789Z,101083.69
2023-05-19T07:29:15.815Z,101083.06
2023-05-19T07:31:44.348Z,101076.34
2023-05-19T07:34:12.884Z,101076.56
2023-05-19T07:36:42.772Z,101076.75
2023-05-19T07:39:12.059Z,101073.50
2023-05-19T07:41:40.651Z,101079.88
2023-05-19T07:44:10.657Z,101074.81
2023-05-19T07:46:39.706Z,101080.28
2023-05-19T07:49:08.836Z,101071.75
2023-05-19T07:51:37.953Z,101066.63
2023-05-19T07:54:08.476Z,101061.66
2023-05-19T07:56:37.093Z,101060.09
2023-05-19T07:59:06.008Z,101058.59
2023-05-19T08:01:34.579Z,101057.06
2023-05-19T08:04:03.496Z,101067.88
2023-05-19T08:06:32.179Z,101055.84
2023-05-19T08:09:00.764Z,101056.94
2023-05-19T08:11:31.064Z,101052.72
2023-05-19T08:13:59.513Z,101048.63
2023-05-19T08:16:31.419Z,101053.22
2023-05-19T08:19:02.607Z,101052.56
2023-05-19T08:21:34.503Z,101055.41
2023-05-19T08:24:03.653Z,101046.84
2023-05-19T08:26:35.750Z,101036.53
2023-05-19T08:29:05.678Z,101049.00
2023-05-19T08:31:34.828Z,101039.56
2023-05-19T08:34:04.056Z,101041.50
2023-05-19T08:36:33.820Z,101033.75
2023-05-19T08:39:02.721Z,101023.34
2023-05-19T08:41:31.373Z,101020.06
2023-05-19T08:44:01.218Z,101027.28
2023-05-19T08:46:30.487Z,101020.38
2023-05-19T08:49:06.567Z,101021.50
2023-05-19T08:51:43.966Z,101016.41
2023-05-19T08:54:16.902Z,101016.59
2023-05-19T08:56:46.582Z,101021.09
2023-05-19T08:59:18.374Z,101016.88
2023-05-19T09:01:47.578Z,101012.66
2023-05-19T09:04:18.241Z,101018.06
2023-05-19T09:06:46.877Z,101008.50
2023-05-19T09:09:15.703Z,101012.13
2023-05-19T09:11:47.294Z,101004.38
2023-05-19T09:14:17.880Z,101001.88
2023-05-19T09:16:51.026Z,100999.31
2023-05-19T09:19:22.920Z,100998.50
2023-05-19T09:22:01.099Z,100989.03
2023-05-19T09:24:29.878Z,100995.31
2023-05-19T09:27:00.216Z,100999.94
2023-05-19T09:29:32.017Z,101000.88
2023-05-19T09:32:04.317Z,100992.16
2023-05-19T09:34:36.165Z,100984.41
2023-05-19T09:37:05.235Z,100983.66
2023-05-19T09:39:33.921Z,100983.81
2023-05-19T09:42:06.841Z,100988.34
2023-05-19T09:44:36.738Z,100978.81
2023-05-19T09:47:05.695Z,100980.66
2023-05-19T09:49:34.107Z,100977.31
2023-05-19T09:52:04.921Z,100964.19
2023-05-19T09:54:35.584Z,100983.69
2023-05-19T09:57:08.540Z,100979.41
2023-05-19T09:59:40.005Z,100970.69
2023-05-19T10:02:16.486Z,100964.56
2023-05-19T10:04:47.815Z,100961.13
2023-05-19T10:07:19.715Z,100957.66
2023-05-19T10:09:51.488Z,100960.38
2023-05-19T10:12:21.651Z,100959.63
2023-05-19T10:14:54.914Z,100961.44
2023-05-19T10:17:26.366Z,100963.31
2023-05-19T10:19:56.034Z,100965.19
2023-05-19T10:22:26.236Z,100975.00
2023-05-19T10:24:56.070Z,100972.41
2023-05-19T10:27:30.538Z,100973.41
2023-05-19T10:30:11.479Z,100967.28
2023-05-19T10:32:44.062Z,100959.44
2023-05-19T10:35:44.138Z,100947.94
2023-05-19T10:38:23.274Z,100948.81
2023-05-19T10:41:03.341Z,100955.00
2023-05-19T10:43:48.701Z,100943.66
2023-05-19T10:46:19.536Z,100948.13
2023-05-19T10:48:48.661Z,100949.88
2023-05-19T10:51:17.963Z,100952.59
2023-05-19T10:53:47.963Z,100943.84
2023-05-19T10:56:31.093Z,100947.50
2023-05-19T10:59:00.511Z,100937.88
2023-05-19T11:01:34.827Z,100938.84
2023-05-19T11:04:12.387Z,100939.84
2023-05-19T11:06:41.912Z,100939.91
2023-05-19T11:09:15.336Z,100938.22
2023-05-19T11:11:47.533Z,100933.91
2023-05-19T11:14:19.078Z,100939.28
2023-05-19T11:16:50.695Z,100939.34
2023-05-19T11:19:21.393Z,100934.97
2023-05-19T11:21:52.634Z,100927.97
2023-05-19T11:24:37.844Z,100937.78
2023-05-19T11:27:23.101Z,100920.19
2023-05-19T11:29:52.744Z,100919.38
2023-05-19T11:32:23.655Z,100922.94
2023-05-19T11:34:52.492Z,100921.16
2023-05-19T11:37:21.477Z,100927.38
2023-05-19T11:39:54.600Z,100926.56
2023-05-19T11:42:29.226Z,100925.78
2023-05-19T11:44:57.838Z,100921.38
2023-05-19T11:47:28.580Z,100916.09
2023-05-19T11:49:57.617Z,100917.06
2023-05-19T11:52:27.477Z,100912.69
2023-05-19T11:54:59.803Z,100906.50
2023-05-19T11:57:28.420Z,100913.59
2023-05-19T11:59:57.639Z,100896.81
2023-05-19T12:02:28.551Z,100905.69
2023-05-19T12:04:57.211Z,100896.84
2023-05-19T12:07:26.548Z,100903.09
2023-05-19T12:09:56.396Z,100897.81
2023-05-19T12:12:25.083Z,100901.41
2023-05-19T12:14:54.577Z,100888.09
2023-05-19T12:17:24.374Z,100901.44
2023-05-19T12:19:55.535Z,100886.38
2023-05-19T12:22:26.787Z,100889.00
2023-05-19T12:24:55.966Z,100885.50
2023-05-19T12:27:26.336Z,100886.38
2023-05-19T12:29:57.169Z,100877.50
2023-05-19T12:32:26.950Z,100873.94
2023-05-19T12:34:57.609Z,100871.31
2023-05-19T12:37:30.195Z,100862.44
2023-05-19T12:39:59.228Z,100862.44
2023-05-19T12:42:31.261Z,100874.84
2023-05-19T12:45:03.086Z,100870.38
2023-05-19T12:47:34.871Z,100863.28
2023-05-19T12:50:07.994Z,100864.16
2023-05-19T12:52:43.907Z,100857.91
2023-05-19T12:55:12.892Z,100856.13
2023-05-19T12:57:43.111Z,100857.84
2023-05-19T13:00:17.762Z,100843.59
2023-05-19T13:02:57.586Z,100853.34
2023-05-19T13:05:28.741Z,100846.19
2023-05-19T13:08:00.057Z,100855.03
2023-05-19T13:10:29.764Z,100856.66
2023-05-19T13:13:00.309Z,100850.38
2023-05-19T13:15:31.801Z,100844.94
2023-05-19T13:18:02.556Z,100852.00
2023-05-19T13:20:34.615Z,100851.84
2023-05-19T13:23:03.754Z,100850.03
2023-05-19T13:25:36.568Z,100857.09
2023-05-19T13:28:06.144Z,100848.09
2023-05-19T13:30:36.060Z,100844.44
2023-05-19T13:33:05.198Z,100854.13
2023-05-19T13:35:37.570Z,100842.41
2023-05-19T13:38:06.960Z,100842.25
2023-05-19T13:40:36.761Z,100834.09
2023-05-19T13:43:06.154Z,100828.50
2023-05-19T13:45:35.018Z,100834.50
2023-05-19T13:48:03.856Z,100828.16
2023-05-19T13:50:34.218Z,100830.72
2023-05-19T13:53:04.701Z,100825.16
2023-05-19T13:55:36.254Z,100817.94
2023-05-19T13:58:04.880Z,100817.75
2023-05-19T14:00:35.698Z,100816.63
2023-05-19T14:03:06.933Z,100817.28
2023-05-19T14:05:35.818Z,100813.53
2023-05-19T14:08:06.793Z,100810.78
2023-05-19T14:10:36.150Z,100808.03
2023-05-19T14:13:29.951Z,100814.16
2023-05-19T14:15:53.600Z,100813.13
2023-05-19T14:18:22.569Z,100811.06
2023-05-19T14:20:51.095Z,100810.91
2023-05-19T14:23:21.769Z,100798.03
2023-05-19T14:25:50.397Z,100806.59
2023-05-19T14:28:20.317Z,100800.94
2023-05-19T14:30:49.561Z,100804.09
2023-05-19T14:33:19.416Z,100799.56
2023-05-19T14:35:48.422Z,100799.84
2023-05-19T14:38:16.934Z,100798.97
2023-05-19T14:40:48.476Z,100804.13
2023-05-19T14:43:16.975Z,100798.47
2023-05-19T14:45:46.920Z,100789.19
2023-05-19T14:48:15.847Z,100793.41
2023-05-19T14:50:48.327Z,100792.53
2023-05-19T14:53:20.594Z,100798.31
2023-05-19T14:55:51.308Z,100804.34
2023-05-19T14:58:27.457Z,100802.22
2023-05-19T15:00:59.157Z,100799.03
2023-05-19T15:03:27.917Z,100788.72
2023-05-19T15:05:56.581Z,100795.63
2023-05-19T15:08:25.160Z,100787.78
2023-05-19T15:10:55.102Z,100787.91
2023-05-19T15:13:23.697Z,100782.34
2023-05-19T15:16:08.253Z,100791.03
2023-05-19T15:18:44.437Z,100787.94
2023-05-19T15:21:13.316Z,100773.25
2023-05-19T15:23:42.153Z,100773.81
2023-05-19T15:26:12.213Z,100772.72
2023-05-19T15:28:40.784Z,100773.59
2023-05-19T15:31:12.282Z,100777.97
2023-05-19T15:33:41.120Z,100778.72
2023-05-19T15:36:11.193Z,100777.66
2023-05-19T15:38:39.896Z,100774.00
2023-05-19T15:41:09.519Z,100782.75
2023-05-19T15:43:41.409Z,100777.38
2023-05-19T15:46:11.320Z,100773.84
2023-05-19T15:48:39.979Z,100771.41
2023-05-19T15:51:08.999Z,100775.94
2023-05-19T15:53:37.970Z,100766.13
2023-05-19T15:56:06.968Z,100770.50
2023-05-19T15:58:35.906Z,100765.00
2023-05-19T16:01:06.499Z,100762.06
2023-05-19T16:03:35.698Z,100756.41
2023-05-19T16:06:05.001Z,100752.59
2023-05-19T16:08:33.644Z,100762.34
2023-05-19T16:11:02.218Z,100756.13
2023-05-19T16:13:33.559Z,100750.75
2023-05-19T16:16:02.288Z,100754.38
2023-05-19T16:18:32.416Z,100748.78
2023-05-19T16:21:01.405Z,100743.31
2023-05-19T16:23:29.982Z,100748.81
2023-05-19T16:25:58.593Z,100744.59
2023-05-19T16:28:28.005Z,100745.63
2023-05-19T16:30:58.740Z,100740.56
2023-05-19T16:33:27.709Z,100737.19
2023-05-19T16:35:59.860Z,100730.41
2023-05-19T16:38:28.446Z,100733.50
2023-05-19T16:40:57.021Z,100729.06
2023-05-19T16:43:26.341Z,100729.06
2023-05-19T16:45:54.958Z,100724.59
2023-05-19T16:48:23.594Z,100726.41
2023-05-19T16:50:52.224Z,100728.22
2023-05-19T16:53:22.580Z,100724.94
2023-05-19T16:55:51.408Z,100728.75
2023-05-19T16:58:20.035Z,100724.47
2023-05-19T17:00:52.586Z,100728.13
2023-05-19T17:03:21.511Z,100733.56
2023-05-19T17:05:50.426Z,100726.66
2023-05-19T17:08:19.048Z,100738.69
2023-05-19T17:10:50.086Z,100725.50
2023-05-19T17:13:18.752Z,100730.16
2023-05-19T17:15:52.503Z,100723.16
2023-05-19T17:18:21.202Z,100735.84
2023-05-19T17:20:49.778Z,100728.13
2023-05-19T17:23:18.401Z,100725.84
2023-05-19T17:25:47.158Z,100725.44
2023-05-19T17:28:17.102Z,100723.97
2023-05-19T17:30:45.697Z,100727.00
2023-05-19T17:33:14.347Z,100718.34
2023-05-19T17:35:42.938Z,100732.03
2023-05-19T17:38:11.432Z,100732.38
2023-05-19T17:40:41.913Z,100727.31
2023-05-19T17:43:10.846Z,100729.38
2023-05-19T17:45:40.801Z,100736.94
2023-05-19T17:48:09.490Z,100739.03
2023-05-19T17:50:38.030Z,100745.59
2023-05-19T17:53:07.055Z,100749.47
2023-05-19T17:55:39.584Z,100746.22
2023-05-19T17:58:08.881Z,100748.34
2023-05-19T18:00:38.127Z,100743.28
2023-05-19T18:03:09.231Z,100756.88
2023-05-19T18:05:40.039Z,100751.69
2023-05-19T18:08:09.572Z,100750.16
2023-05-19T18:10:39.971Z,100756.53
2023-05-19T18:13:10.548Z,100757.59
2023-05-19T18:15:39.524Z,100755.91
2023-05-19T18:20:41.217Z,100757.09
2023-05-19T18:23:09.920Z,100753.63
2023-05-19T18:25:38.570Z,100761.75
2023-05-19T18:28:07.110Z,100757.34
2023-05-19T18:30:36.169Z,100754.72
2023-05-19T18:33:05.896Z,100761.91
2023-05-19T18:35:37.799Z,100760.19
2023-05-19T18:38:06.868Z,100758.50
2023-05-19T18:40:36.701Z,100762.94
2023-05-19T18:43:05.806Z,100771.00
2023-05-19T18:45:34.636Z,100763.03
2023-05-19T18:48:03.930Z,100768.41
2023-05-19T18:50:33.274Z,100766.66
2023-05-19T18:53:03.723Z,100773.75
2023-05-19T18:55:32.425Z,100771.09
2023-05-19T18:58:01.806Z,100776.44
2023-05-19T19:00:31.065Z,100778.22
2023-05-19T19:03:00.112Z,100774.69
2023-05-19T19:05:29.762Z,100776.47
2023-05-19T19:07:59.015Z,100781.81
2023-05-19T19:10:29.742Z,100782.69
2023-05-19T19:12:58.957Z,100787.16
2023-05-19T19:15:28.524Z,100787.16
2023-05-19T19:17:57.790Z,100790.66
2023-05-19T19:20:26.718Z,100795.97
2023-05-19T19:22:56.920Z,100797.69
2023-05-19T19:25:25.714Z,100799.47
2023-05-19T19:27:56.501Z,100800.31
2023-05-19T19:30:25.692Z,100802.09
2023-05-19T19:32:57.012Z,100805.59
2023-05-19T19:35:26.441Z,100809.09
2023-05-19T19:37:55.465Z,100811.72
2023-05-19T19:40:26.150Z,100807.31
2023-05-19T19:42:56.774Z,100813.47
2023-05-19T19:45:25.809Z,100822.28
2023-05-19T19:47:54.994Z,100824.84
2023-05-19T19:50:24.297Z,100828.34
2023-05-19T19:52:53.297Z,100825.66
2023-05-19T19:55:22.402Z,100818.53
2023-05-19T19:57:51.316Z,100826.44
2023-05-19T20:00:24.937Z,100824.66
2023-05-19T20:03:03.753Z,100825.47
2023-05-19T20:05:34.736Z,100824.56
2023-05-19T20:08:03.430Z,100830.72
2023-05-19T20:10:33.180Z,100821.84
2023-05-19T20:13:02.111Z,100827.97
2023-05-19T20:15:33.256Z,100827.91
2023-05-19T20:18:02.519Z,100837.59
2023-05-19T20:20:32.120Z,100835.78
2023-05-19T20:23:01.385Z,100835.72
2023-05-19T20:25:30.301Z,100844.50
2023-05-19T20:27:59.139Z,100842.63
2023-05-19T20:30:31.314Z,100837.28
2023-05-19T20:33:00.537Z,100838.06
2023-05-19T20:35:29.618Z,100838.03
2023-05-19T20:37:58.465Z,100840.59
2023-05-19T20:40:27.332Z,100840.53
2023-05-19T20:42:56.434Z,100843.13
2023-05-19T20:45:25.956Z,100839.53
2023-05-19T20:47:57.120Z,100842.13
2023-05-19T20:50:26.366Z,100845.63
2023-05-19T20:52:55.496Z,100850.84
2023-05-19T20:55:24.285Z,100847.25
2023-05-19T20:57:53.172Z,100854.25
2023-05-19T21:00:22.010Z,100844.47
2023-05-19T21:02:50.850Z,100859.41
2023-05-19T21:05:21.052Z,100854.06
2023-05-19T21:07:50.879Z,100861.91
2023-05-19T21:10:19.681Z,100861.84
2023-05-19T21:12:48.667Z,100852.03
2023-05-19T21:15:17.437Z,100854.59
2023-05-19T21:17:46.611Z,100856.28
2023-05-19T21:20:15.258Z,100867.72
2023-05-19T21:22:45.379Z,100857.94
2023-05-19T21:25:14.431Z,100857.88
2023-05-19T21:27:46.267Z,100858.69
2023-05-19T21:30:15.563Z,100859.53
2023-05-19T21:32:44.384Z,100860.31
2023-05-19T21:35:13.179Z,100851.44
2023-05-19T21:37:41.813Z,100858.41
2023-05-19T21:40:12.739Z,100864.53
2023-05-19T21:42:41.328Z,100867.09
2023-05-19T21:45:10.859Z,100858.22
2023-05-19T21:47:42.019Z,100863.44
2023-05-19T21:50:15.665Z,100862.50
2023-05-19T21:52:44.461Z,100861.53
2023-05-19T21:55:14.557Z,100859.69
2023-05-19T21:57:43.258Z,100856.97
2023-05-19T22:00:13.556Z,100863.06
2023-05-19T22:02:42.236Z,100864.75
2023-05-19T22:05:11.725Z,100855.03
2023-05-19T22:07:40.605Z,100862.91
2023-05-19T22:10:10.121Z,100866.31
2023-05-19T22:12:40.208Z,100861.00
2023-05-19T22:15:09.969Z,100856.56
2023-05-19T22:17:38.762Z,100861.75
2023-05-19T22:20:08.704Z,100856.41
2023-05-19T22:22:40.023Z,100851.03
2023-05-19T22:25:09.652Z,100865.97
2023-05-19T22:27:38.448Z,100858.84
2023-05-19T22:30:12.581Z,100864.94
2023-05-19T22:32:41.174Z,100866.63
2023-05-19T22:35:12.525Z,100863.94
2023-05-19T22:37:41.204Z,100864.75
2023-05-19T22:40:10.585Z,100862.03
2023-05-19T22:42:39.453Z,100863.75
2023-05-19T22:45:10.849Z,100858.41
2023-05-19T22:47:40.130Z,100863.59
2023-05-19T22:50:10.471Z,100853.88
2023-05-19T22:52:39.474Z,100861.72
2023-05-19T22:55:09.110Z,100856.41
2023-05-19T22:57:37.861Z,100851.06
2023-05-19T23:00:08.400Z,100862.44
2023-05-19T23:02:38.510Z,100853.56
2023-05-19T23:05:07.996Z,100852.63
2023-05-19T23:07:36.540Z,100850.81
2023-05-19T23:10:06.185Z,100851.59
2023-05-19T23:12:34.889Z,100852.47
2023-05-19T23:15:03.806Z,100859.41
2023-05-19T23:17:35.281Z,100851.44
2023-05-19T23:20:05.855Z,100859.25
2023-05-19T23:22:34.380Z,100853.91
2023-05-19T23:25:07.416Z,100854.69
2023-05-19T23:27:36.442Z,100856.38
2023-05-19T23:30:05.886Z,100852.81
2023-05-19T23:32:34.555Z,100853.59
2023-05-19T23:35:12.613Z,100853.53
2023-05-19T23:37:41.351Z,100858.72
2023-05-19T23:40:10.722Z,100844.63
2023-05-19T23:42:39.508Z,100851.59
2023-05-19T23:45:09.500Z,100847.09
2023-05-19T23:47:38.245Z,100843.53
2023-05-19T23:50:07.496Z,100835.53
2023-05-19T23:52:37.973Z,100840.75
2023-05-19T23:55:07.747Z,100838.06
2023-05-19T23:57:36.430Z,100838.81
